createdAt,value
2019-01-31T00:02:26.083Z,94.40
2019-01-31T00:05:06.690Z,94.30
2019-01-31T00:08:14.073Z,94.30
2019-01-31T00:11:13.300Z,94.40
2019-01-31T00:14:30.910Z,94.40
2019-01-31T00:17:29.748Z,94.30
2019-01-31T00:20:37.055Z,94.40
2019-01-31T00:23:47.155Z,94.30
2019-01-31T00:26:55.047Z,94.30
2019-01-31T00:30:08.001Z,94.30
2019-01-31T00:33:34.206Z,94.30
2019-01-31T00:36:41.758Z,94.40
2019-01-31T00:40:05.074Z,94.30
2019-01-31T00:43:18.513Z,94.30
2019-01-31T00:46:32.654Z,94.30
2019-01-31T00:49:47.351Z,94.30
2019-01-31T00:52:46.738Z,94.20
2019-01-31T00:56:10.266Z,94.30
2019-01-31T00:59:03.594Z,94.30
2019-01-31T01:01:58.422Z,94.40
2019-01-31T01:04:53.583Z,94.50
2019-01-31T01:07:47.819Z,94.40
2019-01-31T01:11:05.180Z,94.50
2019-01-31T01:14:21.231Z,94.50
2019-01-31T01:17:12.943Z,94.40
2019-01-31T01:19:51.588Z,94.50
2019-01-31T01:22:58.559Z,94.40
2019-01-31T01:26:02.077Z,94.40
2019-01-31T01:29:08.926Z,94.40
2019-01-31T01:32:08.670Z,94.50
2019-01-31T01:35:12.706Z,94.40
2019-01-31T01:38:06.342Z,94.40
2019-01-31T01:41:19.726Z,94.30
2019-01-31T01:44:14.371Z,94.40
2019-01-31T01:47:14.854Z,94.40
2019-01-31T01:49:52.089Z,94.50
2019-01-31T01:52:53.381Z,94.40
2019-01-31T01:56:13.342Z,94.40
2019-01-31T01:59:08.958Z,94.40
2019-01-31T02:02:29.246Z,94.40
2019-01-31T02:05:30.642Z,94.40
2019-01-31T02:08:17.922Z,94.50
2019-01-31T02:11:02.599Z,94.50
2019-01-31T02:14:12.337Z,94.40
2019-01-31T02:17:13.314Z,94.50
2019-01-31T02:19:56.810Z,94.40
2019-01-31T02:23:20.590Z,94.40
2019-01-31T02:26:22.070Z,94.50
2019-01-31T02:29:33.049Z,94.30
2019-01-31T02:32:59.859Z,94.50
2019-01-31T02:36:05.149Z,94.40
2019-01-31T02:39:07.086Z,94.50
2019-01-31T02:42:49.114Z,94.50
2019-01-31T02:45:50.685Z,94.50
2019-01-31T02:49:06.483Z,94.50
2019-01-31T02:52:07.527Z,94.50
2019-01-31T02:55:02.378Z,94.50
2019-01-31T02:58:14.224Z,94.50
2019-01-31T03:01:28.616Z,94.60
2019-01-31T03:04:40.653Z,94.50
2019-01-31T03:07:52.442Z,94.50
2019-01-31T03:10:50.954Z,94.60
2019-01-31T03:13:41.352Z,94.50
2019-01-31T03:16:52.878Z,94.40
2019-01-31T03:19:45.500Z,94.40
2019-01-31T03:22:54.401Z,94.50
2019-01-31T03:26:05.202Z,94.50
2019-01-31T03:29:28.433Z,94.50
2019-01-31T03:32:21.491Z,94.30
2019-01-31T03:35:27.487Z,94.30
2019-01-31T03:38:15.936Z,94.30
2019-01-31T03:41:05.798Z,94.30
2019-01-31T03:44:10.523Z,94.20
2019-01-31T03:47:12.371Z,94.20
2019-01-31T03:49:51.146Z,94.30
2019-01-31T03:52:52.462Z,94.30
2019-01-31T03:56:15.787Z,94.40
2019-01-31T03:58:51.284Z,94.30
2019-01-31T04:01:58.130Z,94.50
2019-01-31T04:04:42.323Z,94.40
2019-01-31T04:07:12.714Z,94.40
2019-01-31T04:09:43.048Z,94.50
2019-01-31T04:12:13.458Z,94.50
2019-01-31T04:14:43.812Z,94.40
2019-01-31T04:17:14.352Z,94.40
2019-01-31T04:19:44.701Z,94.30
2019-01-31T04:22:15.114Z,94.30
2019-01-31T04:24:45.456Z,94.40
2019-01-31T04:27:15.813Z,94.30
2019-01-31T04:29:46.186Z,94.20
2019-01-31T04:32:16.550Z,94.20
2019-01-31T04:34:46.950Z,94.30
2019-01-31T04:37:17.323Z,94.10
2019-01-31T04:39:47.694Z,94.20
2019-01-31T04:42:18.037Z,94.20
2019-01-31T04:44:48.391Z,94.20
2019-01-31T04:47:18.727Z,94.30
2019-01-31T04:49:49.117Z,94.20
2019-01-31T04:52:19.439Z,94.30
2019-01-31T04:54:49.810Z,94.30
2019-01-31T04:57:20.173Z,94.20
2019-01-31T04:59:50.554Z,94.10
2019-01-31T05:02:20.918Z,94.10
2019-01-31T05:04:51.250Z,94.20
2019-01-31T05:07:21.610Z,94.10
2019-01-31T05:09:51.955Z,94.10
2019-01-31T05:12:22.667Z,94.20
2019-01-31T05:14:53.006Z,94.10
2019-01-31T05:17:23.383Z,94.10
2019-01-31T05:19:53.727Z,94.10
2019-01-31T05:22:24.106Z,94.30
2019-01-31T05:24:54.444Z,94.20
2019-01-31T05:27:24.900Z,94.00
2019-01-31T05:29:55.893Z,94.20
2019-01-31T05:32:26.278Z,94.20
2019-01-31T05:34:56.630Z,94.20
2019-01-31T05:37:27.117Z,94.10
2019-01-31T05:39:57.462Z,94.10
2019-01-31T05:42:27.827Z,94.10
2019-01-31T05:44:58.202Z,94.10
2019-01-31T05:47:28.571Z,94.20
2019-01-31T05:49:59.326Z,94.20
2019-01-31T05:52:29.663Z,94.20
2019-01-31T05:55:00.022Z,94.40
2019-01-31T05:57:30.366Z,94.30
2019-01-31T06:00:00.794Z,94.50
2019-01-31T06:02:31.154Z,94.70
2019-01-31T06:05:01.548Z,94.70
2019-01-31T06:07:31.903Z,94.70
2019-01-31T06:10:02.282Z,94.50
2019-01-31T06:12:32.974Z,94.90
2019-01-31T06:15:03.370Z,95.00
2019-01-31T06:17:33.740Z,95.00
2019-01-31T06:20:05.102Z,95.20
2019-01-31T06:22:35.451Z,95.10
2019-01-31T06:25:06.317Z,95.80
2019-01-31T06:27:36.662Z,95.40
2019-01-31T06:30:07.999Z,95.20
2019-01-31T06:32:38.346Z,95.20
2019-01-31T06:35:12.394Z,94.90
2019-01-31T06:37:42.826Z,95.00
2019-01-31T06:40:15.732Z,95.10
2019-01-31T06:42:46.757Z,95.30
2019-01-31T06:45:19.054Z,95.60
2019-01-31T06:47:49.389Z,95.60
2019-01-31T06:50:19.755Z,95.80
2019-01-31T06:52:50.114Z,95.70
2019-01-31T06:55:20.472Z,95.40
2019-01-31T06:57:50.836Z,95.80
2019-01-31T07:00:23.138Z,95.90
2019-01-31T07:02:54.355Z,96.00
2019-01-31T07:05:24.686Z,95.50
2019-01-31T07:07:55.104Z,95.70
2019-01-31T07:10:26.973Z,95.70
2019-01-31T07:12:57.438Z,95.40
2019-01-31T07:15:27.782Z,95.80
2019-01-31T07:17:58.170Z,95.90
2019-01-31T07:20:28.503Z,95.70
2019-01-31T07:22:58.886Z,95.70
2019-01-31T07:25:29.226Z,95.70
2019-01-31T07:28:17.434Z,95.70
2019-01-31T07:30:47.767Z,95.80
2019-01-31T07:33:18.238Z,95.60
2019-01-31T07:35:51.911Z,95.50
2019-01-31T07:38:21.534Z,95.50
2019-01-31T07:40:51.861Z,95.30
2019-01-31T07:43:22.326Z,95.20
2019-01-31T07:45:52.664Z,95.10
2019-01-31T07:48:23.118Z,95.10
2019-01-31T07:50:53.597Z,95.10
2019-01-31T07:53:23.954Z,95.00
2019-01-31T07:55:54.289Z,95.10
2019-01-31T07:58:24.649Z,95.00
2019-01-31T08:00:55.015Z,95.00
2019-01-31T08:03:25.402Z,95.00
2019-01-31T08:05:55.738Z,94.90
2019-01-31T08:08:26.486Z,94.90
2019-01-31T08:10:56.830Z,94.70
2019-01-31T08:13:27.290Z,94.80
2019-01-31T08:15:57.619Z,94.80
2019-01-31T08:18:28.086Z,94.60
2019-01-31T08:20:58.418Z,94.50
2019-01-31T08:23:28.789Z,94.50
2019-01-31T08:25:59.150Z,94.50
2019-01-31T08:28:29.482Z,94.60
2019-01-31T08:30:59.838Z,94.30
2019-01-31T08:33:30.184Z,94.30
2019-01-31T08:36:00.603Z,94.30
2019-01-31T08:38:31.046Z,94.20
2019-01-31T08:41:01.387Z,94.00
2019-01-31T08:43:31.751Z,94.00
2019-01-31T08:46:02.105Z,94.00
2019-01-31T08:48:32.486Z,94.00
2019-01-31T08:51:02.832Z,93.90
2019-01-31T08:53:33.204Z,93.80
2019-01-31T08:56:04.020Z,94.00
2019-01-31T08:58:34.813Z,94.00
2019-01-31T09:01:05.309Z,93.50
2019-01-31T09:03:35.709Z,93.60
2019-01-31T09:06:06.155Z,93.60
2019-01-31T09:08:37.594Z,93.20
2019-01-31T09:11:07.942Z,93.70
2019-01-31T09:13:39.494Z,93.70
2019-01-31T09:16:11.015Z,93.60
2019-01-31T09:18:41.550Z,93.70
2019-01-31T09:21:29.770Z,93.40
2019-01-31T09:24:42.078Z,93.20
2019-01-31T09:27:45.687Z,92.90
2019-01-31T09:31:00.199Z,93.30
2019-01-31T09:33:43.666Z,92.80
2019-01-31T09:36:51.805Z,92.60
2019-01-31T09:39:49.126Z,92.60
2019-01-31T09:42:28.299Z,93.00
2019-01-31T09:45:35.365Z,92.90
2019-01-31T09:48:31.943Z,92.20
2019-01-31T09:51:13.490Z,91.90
2019-01-31T09:54:10.255Z,92.10
2019-01-31T09:57:06.774Z,92.70
2019-01-31T10:00:00.838Z,92.50
2019-01-31T10:03:11.007Z,92.10
2019-01-31T10:06:37.387Z,92.00
2019-01-31T10:09:33.263Z,91.70
2019-01-31T10:12:47.863Z,92.00
2019-01-31T10:15:58.619Z,92.20
2019-01-31T10:18:59.398Z,91.40
2019-01-31T10:21:44.957Z,91.40
2019-01-31T10:24:54.596Z,91.30
2019-01-31T10:27:51.651Z,90.30
2019-01-31T10:30:39.350Z,90.70
2019-01-31T10:33:59.717Z,90.70
2019-01-31T10:36:38.959Z,90.70
2019-01-31T10:39:51.726Z,90.80
2019-01-31T10:42:50.501Z,90.40
2019-01-31T10:45:43.970Z,90.40
2019-01-31T10:48:48.511Z,90.90
2019-01-31T10:51:44.004Z,89.70
2019-01-31T10:54:57.478Z,89.80
2019-01-31T10:58:06.504Z,90.10
2019-01-31T11:01:36.562Z,90.20
2019-01-31T11:04:45.086Z,89.20
2019-01-31T11:08:01.842Z,90.20
2019-01-31T11:11:04.119Z,90.00
2019-01-31T11:14:07.490Z,89.50
2019-01-31T11:17:26.574Z,88.90
2019-01-31T11:20:28.926Z,89.30
2019-01-31T11:23:48.058Z,90.10
2019-01-31T11:27:04.962Z,89.30
2019-01-31T11:30:00.014Z,89.40
2019-01-31T11:33:07.438Z,88.60
2019-01-31T11:36:33.793Z,89.30
2019-01-31T11:39:27.003Z,89.20
2019-01-31T11:42:26.594Z,88.60
2019-01-31T11:45:29.296Z,88.20
2019-01-31T11:48:32.328Z,88.50
2019-01-31T11:51:34.833Z,88.00
2019-01-31T11:55:04.098Z,88.60
2019-01-31T11:58:22.710Z,88.40
2019-01-31T12:00:53.246Z,88.10
2019-01-31T12:03:24.238Z,87.40
2019-01-31T12:05:54.573Z,87.40
2019-01-31T12:08:25.046Z,87.90
2019-01-31T12:10:55.394Z,87.80
2019-01-31T12:13:26.839Z,87.00
2019-01-31T12:15:57.192Z,86.10
2019-01-31T12:18:27.562Z,86.90
2019-01-31T12:20:58.824Z,86.50
2019-01-31T12:23:32.148Z,87.30
2019-01-31T12:26:01.484Z,86.90
2019-01-31T12:28:31.823Z,87.20
2019-01-31T12:31:02.178Z,86.20
2019-01-31T12:33:32.722Z,86.00
2019-01-31T12:36:03.093Z,85.60
2019-01-31T12:38:54.884Z,84.80
2019-01-31T12:41:24.610Z,84.90
2019-01-31T12:43:55.361Z,83.60
2019-01-31T12:46:26.102Z,85.10
2019-01-31T12:48:56.426Z,84.10
2019-01-31T12:51:26.767Z,85.10
2019-01-31T12:53:57.125Z,83.80
2019-01-31T12:56:27.466Z,83.80
2019-01-31T12:58:57.847Z,84.20
2019-01-31T13:01:28.184Z,84.90
2019-01-31T13:03:58.614Z,85.30
2019-01-31T13:06:28.983Z,85.60
2019-01-31T13:09:00.042Z,85.50
2019-01-31T13:11:30.386Z,86.00
2019-01-31T13:14:00.752Z,84.80
2019-01-31T13:16:31.146Z,83.60
2019-01-31T13:19:01.499Z,83.90
2019-01-31T13:21:31.873Z,84.40
2019-01-31T13:24:02.202Z,84.10
2019-01-31T13:26:32.574Z,82.70
2019-01-31T13:29:02.914Z,83.20
2019-01-31T13:31:33.330Z,83.70
2019-01-31T13:34:03.975Z,83.70
2019-01-31T13:36:34.382Z,82.90
2019-01-31T13:39:09.538Z,82.20
2019-01-31T13:41:41.960Z,81.30
2019-01-31T13:44:12.469Z,82.70
2019-01-31T13:46:42.847Z,82.80
2019-01-31T13:49:13.178Z,83.50
2019-01-31T13:51:43.510Z,83.00
2019-01-31T13:54:14.267Z,83.80
2019-01-31T13:56:45.907Z,83.30
2019-01-31T13:59:16.447Z,82.60
2019-01-31T14:01:46.807Z,83.60
2019-01-31T14:04:17.170Z,83.00
2019-01-31T14:06:47.546Z,83.20
2019-01-31T14:09:17.882Z,84.60
2019-01-31T14:11:48.304Z,84.60
2019-01-31T14:14:18.638Z,84.80
2019-01-31T14:16:49.010Z,85.40
2019-01-31T14:19:19.351Z,86.00
2019-01-31T14:21:49.718Z,85.80
2019-01-31T14:24:20.100Z,86.20
2019-01-31T14:26:50.826Z,86.30
2019-01-31T14:29:21.167Z,86.20
2019-01-31T14:31:51.538Z,86.40
2019-01-31T14:34:21.916Z,86.00
2019-01-31T14:36:52.417Z,85.80
2019-01-31T14:39:23.722Z,86.20
2019-01-31T14:41:54.230Z,86.00
2019-01-31T14:44:24.614Z,86.60
2019-01-31T14:46:54.991Z,86.60
2019-01-31T14:49:25.342Z,86.90
2019-01-31T14:51:55.690Z,86.80
2019-01-31T14:54:26.051Z,86.00
2019-01-31T14:56:56.390Z,87.00
2019-01-31T14:59:27.179Z,86.90
2019-01-31T15:01:58.262Z,86.20
2019-01-31T15:04:28.730Z,88.00
2019-01-31T15:06:59.078Z,88.70
2019-01-31T15:09:29.838Z,89.00
2019-01-31T15:12:00.167Z,89.40
2019-01-31T15:14:31.961Z,89.70
2019-01-31T15:17:02.607Z,89.80
2019-01-31T15:19:33.071Z,89.90
2019-01-31T15:22:03.406Z,90.10
2019-01-31T15:24:34.239Z,90.30
2019-01-31T15:27:04.588Z,90.00
2019-01-31T15:29:35.042Z,90.00
2019-01-31T15:32:05.378Z,89.90
2019-01-31T15:34:35.743Z,90.00
2019-01-31T15:37:06.105Z,90.00
2019-01-31T15:39:36.890Z,90.20
2019-01-31T15:42:07.322Z,90.30
2019-01-31T15:44:43.388Z,90.40
2019-01-31T15:47:10.489Z,90.50
2019-01-31T15:49:41.745Z,90.60
2019-01-31T15:52:12.054Z,90.50
2019-01-31T15:54:42.479Z,90.60
2019-01-31T15:57:16.714Z,90.90
2019-01-31T15:59:45.196Z,90.70
2019-01-31T16:02:15.550Z,90.80
2019-01-31T16:04:45.922Z,90.90
2019-01-31T16:07:16.266Z,90.90
2019-01-31T16:09:46.630Z,90.90
2019-01-31T16:12:17.039Z,91.10
2019-01-31T16:14:54.559Z,91.10
2019-01-31T16:17:19.406Z,91.10
2019-01-31T16:19:50.091Z,91.30
2019-01-31T16:22:20.466Z,91.40
2019-01-31T16:24:51.047Z,91.70
2019-01-31T16:27:21.502Z,91.60
2019-01-31T16:29:51.834Z,91.60
2019-01-31T16:32:22.550Z,91.70
2019-01-31T16:34:54.269Z,91.90
2019-01-31T16:37:24.650Z,91.90
2019-01-31T16:39:54.990Z,92.00
2019-01-31T16:42:25.480Z,92.10
2019-01-31T16:45:06.137Z,92.00
2019-01-31T16:47:27.906Z,92.20
2019-01-31T16:49:58.243Z,92.20
2019-01-31T16:52:28.593Z,92.10
2019-01-31T16:54:58.962Z,92.50
2019-01-31T16:57:29.301Z,92.50
2019-01-31T16:59:59.666Z,92.60
2019-01-31T17:02:30.000Z,92.60
2019-01-31T17:05:00.771Z,93.10
2019-01-31T17:07:31.101Z,93.10
2019-01-31T17:10:03.267Z,93.20
2019-01-31T17:12:33.670Z,93.10
2019-01-31T17:15:04.439Z,93.20
2019-01-31T17:17:34.774Z,93.40
2019-01-31T17:20:06.966Z,93.50
2019-01-31T17:22:37.296Z,93.40
2019-01-31T17:25:10.291Z,93.70
2019-01-31T17:27:40.642Z,93.60
2019-01-31T17:30:15.167Z,93.80
2019-01-31T17:32:45.502Z,93.80
2019-01-31T17:35:16.430Z,93.90
2019-01-31T17:37:46.864Z,93.80
2019-01-31T17:40:23.156Z,94.10
2019-01-31T17:42:53.530Z,94.10
2019-01-31T17:45:30.510Z,94.00
2019-01-31T17:47:57.378Z,94.30
2019-01-31T17:50:27.772Z,93.80
2019-01-31T17:52:58.102Z,93.90
2019-01-31T17:55:28.494Z,94.00
2019-01-31T17:57:58.933Z,93.90
2019-01-31T18:00:42.321Z,94.40
2019-01-31T18:03:12.662Z,94.60
2019-01-31T18:05:43.036Z,94.40
2019-01-31T18:08:13.378Z,94.30
2019-01-31T18:10:43.734Z,94.30
2019-01-31T18:13:14.112Z,94.60
2019-01-31T18:15:44.445Z,94.10
2019-01-31T18:18:14.799Z,94.50
2019-01-31T18:20:45.131Z,95.10
2019-01-31T18:23:15.924Z,94.80
2019-01-31T18:25:47.338Z,94.70
2019-01-31T18:28:17.802Z,95.40
2019-01-31T18:30:48.138Z,94.80
2019-01-31T18:33:18.530Z,94.50
2019-01-31T18:35:48.882Z,94.40
2019-01-31T18:38:19.267Z,95.30
2019-01-31T18:40:49.612Z,94.90
2019-01-31T18:43:20.155Z,94.70
2019-01-31T18:45:53.346Z,94.90
2019-01-31T18:48:22.501Z,94.90
2019-01-31T18:50:52.830Z,95.00
2019-01-31T18:53:23.162Z,96.00
2019-01-31T18:55:53.535Z,95.50
2019-01-31T18:58:23.878Z,95.70
2019-01-31T19:00:55.438Z,95.80
2019-01-31T19:03:25.800Z,96.00
2019-01-31T19:05:56.280Z,96.10
2019-01-31T19:08:26.610Z,95.70
2019-01-31T19:10:56.994Z,96.60
2019-01-31T19:13:27.327Z,96.60
2019-01-31T19:16:04.855Z,97.20
2019-01-31T19:18:29.775Z,97.20
2019-01-31T19:21:00.149Z,95.90
2019-01-31T19:23:30.499Z,95.80
2019-01-31T19:26:00.875Z,96.80
2019-01-31T19:28:31.206Z,96.80
2019-01-31T19:31:01.574Z,96.40
2019-01-31T19:33:31.950Z,96.70
2019-01-31T19:36:02.295Z,97.00
2019-01-31T19:38:32.666Z,96.50
2019-01-31T19:41:03.329Z,97.20
2019-01-31T19:43:33.734Z,96.90
2019-01-31T19:46:04.082Z,97.80
2019-01-31T19:48:34.491Z,96.80
2019-01-31T19:51:05.246Z,97.80
2019-01-31T19:53:37.242Z,97.90
2019-01-31T19:56:08.761Z,97.90
2019-01-31T19:58:39.151Z,97.40
2019-01-31T20:01:09.502Z,97.30
2019-01-31T20:03:39.890Z,96.70
2019-01-31T20:06:10.242Z,96.80
2019-01-31T20:08:40.614Z,96.80
2019-01-31T20:11:10.982Z,97.50
2019-01-31T20:13:43.831Z,97.20
2019-01-31T20:16:16.090Z,97.00
2019-01-31T20:18:45.313Z,97.30
2019-01-31T20:21:15.686Z,97.30
2019-01-31T20:23:46.026Z,97.10
2019-01-31T20:26:16.463Z,97.20
2019-01-31T20:28:46.802Z,96.90
2019-01-31T20:31:17.286Z,97.00
2019-01-31T20:33:47.643Z,97.70
2019-01-31T20:36:18.078Z,97.20
2019-01-31T20:38:48.431Z,97.50
2019-01-31T20:41:18.821Z,97.20
2019-01-31T20:43:50.141Z,97.10
2019-01-31T20:46:39.743Z,97.30
2019-01-31T20:49:04.634Z,97.50
2019-01-31T20:51:35.368Z,97.60
2019-01-31T20:54:05.838Z,97.80
2019-01-31T20:56:36.235Z,97.70
2019-01-31T20:59:06.586Z,97.50
2019-01-31T21:01:36.986Z,97.40
2019-01-31T21:04:07.344Z,97.70
2019-01-31T21:06:41.381Z,97.50
2019-01-31T21:09:10.115Z,97.70
2019-01-31T21:11:41.922Z,97.20
2019-01-31T21:14:12.271Z,97.50
2019-01-31T21:16:51.488Z,97.40
2019-01-31T21:19:14.643Z,97.50
2019-01-31T21:21:45.025Z,97.70
2019-01-31T21:24:16.442Z,97.50
2019-01-31T21:26:47.189Z,97.30
2019-01-31T21:29:17.538Z,97.40
2019-01-31T21:31:48.006Z,97.60
2019-01-31T21:34:18.368Z,97.50
2019-01-31T21:36:48.734Z,97.50
2019-01-31T21:39:19.202Z,97.60
2019-01-31T21:41:50.212Z,97.50
2019-01-31T21:44:21.299Z,97.00
2019-01-31T21:47:02.522Z,97.10
2019-01-31T21:49:24.938Z,97.00
2019-01-31T21:51:57.005Z,97.20
2019-01-31T21:54:27.362Z,97.30
2019-01-31T21:56:57.741Z,97.00
2019-01-31T21:59:28.119Z,97.20
2019-01-31T22:01:58.474Z,97.50
2019-01-31T22:04:28.846Z,97.40
2019-01-31T22:06:59.192Z,97.50
2019-01-31T22:09:29.586Z,97.50
2019-01-31T22:11:59.931Z,97.40
2019-01-31T22:14:30.319Z,97.10
2019-01-31T22:17:00.664Z,97.70
2019-01-31T22:19:31.058Z,97.20
2019-01-31T22:22:01.766Z,97.40
2019-01-31T22:24:32.151Z,97.10
2019-01-31T22:27:02.494Z,97.20
2019-01-31T22:29:32.898Z,97.10
2019-01-31T22:32:03.320Z,97.10
2019-01-31T22:34:33.687Z,97.50
2019-01-31T22:37:04.156Z,97.00
2019-01-31T22:39:34.499Z,97.10
2019-01-31T22:42:04.874Z,97.00
2019-01-31T22:44:35.314Z,97.10
2019-01-31T22:47:05.748Z,97.00
2019-01-31T22:49:36.099Z,97.50
2019-01-31T22:52:06.541Z,97.40
2019-01-31T22:54:36.877Z,97.20
2019-01-31T22:57:09.162Z,97.30
2019-01-31T22:59:39.450Z,97.50
2019-01-31T23:02:13.366Z,97.40
2019-01-31T23:04:43.788Z,97.60
2019-01-31T23:07:14.198Z,97.60
2019-01-31T23:09:44.546Z,97.70
2019-01-31T23:12:15.086Z,97.50
2019-01-31T23:14:45.434Z,97.50
2019-01-31T23:17:16.905Z,98.00
2019-01-31T23:19:47.323Z,97.40
2019-01-31T23:22:18.089Z,97.50
2019-01-31T23:24:48.429Z,97.50
2019-01-31T23:27:19.674Z,97.30
2019-01-31T23:29:50.016Z,97.40
2019-01-31T23:32:20.412Z,97.70
2019-01-31T23:34:50.750Z,97.60
2019-01-31T23:37:21.497Z,97.80
2019-01-31T23:39:51.852Z,97.60
2019-01-31T23:42:22.234Z,97.60
2019-01-31T23:44:52.660Z,97.60
2019-01-31T23:47:23.042Z,97.30
2019-01-31T23:49:53.398Z,98.00
2019-01-31T23:52:24.167Z,97.70
2019-01-31T23:54:54.562Z,97.60
2019-01-31T23:57:24.908Z,97.50
2019-01-31T23:59:55.258Z,97.40
